createdAt,value
2018-02-25T00:02:01.204Z,102301.34
2018-02-25T00:04:28.706Z,102303.58
2018-02-25T00:06:56.216Z,102300.45
2018-02-25T00:09:23.761Z,102298.66
2018-02-25T00:11:51.284Z,102299.12
2018-02-25T00:14:18.801Z,102300.72
2018-02-25T00:16:46.319Z,102303.22
2018-02-25T00:19:13.861Z,102302.88
2018-02-25T00:21:41.369Z,102300.51
2018-02-25T00:24:08.911Z,102308.65
2018-02-25T00:26:36.450Z,102307.11
2018-02-25T00:29:03.949Z,102310.34
2018-02-25T00:31:31.476Z,102305.81
2018-02-25T00:33:59.004Z,102306.46
2018-02-25T00:36:26.535Z,102314.69
2018-02-25T00:38:54.034Z,102313.44
2018-02-25T00:41:21.555Z,102308.54
2018-02-25T00:43:49.061Z,102308.30
2018-02-25T00:46:16.582Z,102313.34
2018-02-25T00:48:44.065Z,102306.47
2018-02-25T00:51:11.533Z,102306.33
2018-02-25T00:53:39.022Z,102306.94
2018-02-25T00:56:06.541Z,102306.77
2018-02-25T00:58:34.017Z,102310.21
2018-02-25T01:01:01.679Z,102308.72
2018-02-25T01:03:29.245Z,102304.27
2018-02-25T01:05:57.206Z,102308.19
2018-02-25T01:08:24.697Z,102304.06
2018-02-25T01:10:52.208Z,102293.81
2018-02-25T01:13:19.746Z,102301.13
2018-02-25T01:15:47.310Z,102298.46
2018-02-25T01:18:15.101Z,102300.02
2018-02-25T01:20:42.809Z,102298.76
2018-02-25T01:23:10.606Z,102300.73
2018-02-25T01:25:38.095Z,102290.19
2018-02-25T01:28:05.633Z,102294.92
2018-02-25T01:30:33.143Z,102291.34
2018-02-25T01:33:00.639Z,102291.09
2018-02-25T01:35:28.147Z,102289.33
2018-02-25T01:37:55.864Z,102295.17
2018-02-25T01:40:23.403Z,102291.33
2018-02-25T01:42:50.942Z,102288.02
2018-02-25T01:45:18.446Z,102284.36
2018-02-25T01:47:46.059Z,102287.59
2018-02-25T01:50:13.543Z,102290.81
2018-02-25T01:52:41.106Z,102286.47
2018-02-25T01:55:08.602Z,102279.32
2018-02-25T01:57:36.140Z,102285.60
2018-02-25T02:00:03.684Z,102283.87
2018-02-25T02:02:31.181Z,102283.92
2018-02-25T02:04:58.716Z,102277.61
2018-02-25T02:07:26.289Z,102278.23
2018-02-25T02:09:53.818Z,102289.67
2018-02-25T02:12:21.495Z,102283.13
2018-02-25T02:14:49.000Z,102279.62
2018-02-25T02:17:16.494Z,102281.80
2018-02-25T02:19:44.069Z,102283.23
2018-02-25T02:22:11.597Z,102286.91
2018-02-25T02:24:39.376Z,102286.44
2018-02-25T02:27:06.883Z,102283.77
2018-02-25T02:29:34.398Z,102285.95
2018-02-25T02:32:01.899Z,102278.67
2018-02-25T02:34:29.380Z,102289.00
2018-02-25T02:36:56.895Z,102292.13
2018-02-25T02:39:24.392Z,102290.89
2018-02-25T02:41:52.054Z,102290.94
2018-02-25T02:44:19.580Z,102289.95
2018-02-25T02:46:47.091Z,102298.22
2018-02-25T02:49:14.600Z,102297.73
2018-02-25T02:51:42.179Z,102294.85
2018-02-25T02:54:09.697Z,102288.27
2018-02-25T02:56:37.283Z,102295.78
2018-02-25T02:59:04.807Z,102299.03
2018-02-25T03:01:32.391Z,102301.03
2018-02-25T03:03:59.957Z,102298.73
2018-02-25T03:06:27.454Z,102299.91
2018-02-25T03:08:55.021Z,102300.05
2018-02-25T03:11:22.539Z,102300.73
2018-02-25T03:13:50.135Z,102305.20
2018-02-25T03:16:17.630Z,102305.27
2018-02-25T03:18:45.158Z,102305.33
2018-02-25T03:21:12.646Z,102301.41
2018-02-25T03:23:40.145Z,102300.48
2018-02-25T03:26:07.658Z,102299.79
2018-02-25T03:28:35.147Z,102297.06
2018-02-25T03:31:02.883Z,102300.66
2018-02-25T03:33:30.417Z,102295.66
2018-02-25T03:35:57.941Z,102303.65
2018-02-25T03:38:25.423Z,102303.44
2018-02-25T03:40:52.930Z,102310.98
2018-02-25T03:43:20.436Z,102308.61
2018-02-25T03:45:47.970Z,102303.44
2018-02-25T03:48:15.464Z,102299.00
2018-02-25T03:50:43.083Z,102310.83
2018-02-25T03:53:10.591Z,102314.45
2018-02-25T03:55:38.144Z,102308.69
2018-02-25T03:58:05.770Z,102317.59
2018-02-25T04:00:33.246Z,102309.42
2018-02-25T04:03:01.949Z,102312.53
2018-02-25T04:05:29.459Z,102320.23
2018-02-25T04:07:56.970Z,102312.95
2018-02-25T04:10:24.479Z,102317.09
2018-02-25T04:12:51.972Z,102320.47
2018-02-25T04:15:19.480Z,102325.22
2018-02-25T04:17:47.015Z,102325.13
2018-02-25T04:20:14.569Z,102328.99
2018-02-25T04:22:42.068Z,102334.64
2018-02-25T04:25:09.620Z,102326.69
2018-02-25T04:27:37.147Z,102332.48
2018-02-25T04:30:04.694Z,102333.25
2018-02-25T04:32:32.224Z,102333.87
2018-02-25T04:34:59.826Z,102330.05
2018-02-25T04:37:27.325Z,102334.50
2018-02-25T04:39:54.846Z,102331.77
2018-02-25T04:42:22.318Z,102333.62
2018-02-25T04:44:49.823Z,102327.32
2018-02-25T04:47:17.360Z,102326.84
2018-02-25T04:49:44.877Z,102326.94
2018-02-25T04:52:12.370Z,102324.02
2018-02-25T04:54:39.872Z,102323.82
2018-02-25T04:57:07.404Z,102324.05
2018-02-25T04:59:34.891Z,102321.09
2018-02-25T05:02:02.391Z,102330.45
2018-02-25T05:04:29.913Z,102324.91
2018-02-25T05:06:57.452Z,102321.28
2018-02-25T05:09:24.998Z,102321.03
2018-02-25T05:11:52.493Z,102322.76
2018-02-25T05:14:20.033Z,102326.23
2018-02-25T05:16:47.528Z,102334.84
2018-02-25T05:19:15.026Z,102333.98
2018-02-25T05:21:42.533Z,102329.14
2018-02-25T05:24:10.074Z,102332.91
2018-02-25T05:26:37.617Z,102335.40
2018-02-25T05:29:05.124Z,102335.97
2018-02-25T05:31:33.247Z,102336.59
2018-02-25T05:34:00.848Z,102334.78
2018-02-25T05:36:28.363Z,102336.03
2018-02-25T05:38:55.953Z,102335.98
2018-02-25T05:41:23.645Z,102334.87
2018-02-25T05:43:51.154Z,102325.08
2018-02-25T05:46:19.032Z,102328.63
2018-02-25T05:48:46.724Z,102334.70
2018-02-25T05:51:14.259Z,102333.25
2018-02-25T05:53:41.778Z,102336.21
2018-02-25T05:56:09.282Z,102331.26
2018-02-25T05:58:36.998Z,102337.65
2018-02-25T06:01:04.554Z,102338.61
2018-02-25T06:03:32.082Z,102343.09
2018-02-25T06:05:59.550Z,102344.39
2018-02-25T06:08:27.114Z,102350.02
2018-02-25T06:10:54.657Z,102348.09
2018-02-25T06:13:22.128Z,102352.52
2018-02-25T06:15:49.621Z,102350.41
2018-02-25T06:18:17.173Z,102352.52
2018-02-25T06:20:44.794Z,102351.99
2018-02-25T06:23:12.389Z,102349.16
2018-02-25T06:25:39.972Z,102350.70
2018-02-25T06:28:07.732Z,102343.88
2018-02-25T06:30:35.246Z,102353.91
2018-02-25T06:33:02.786Z,102354.02
2018-02-25T06:35:30.290Z,102354.68
2018-02-25T06:37:57.778Z,102359.53
2018-02-25T06:40:25.281Z,102354.94
2018-02-25T06:42:52.788Z,102350.45
2018-02-25T06:45:20.306Z,102356.70
2018-02-25T06:47:48.015Z,102361.63
2018-02-25T06:50:15.548Z,102358.48
2018-02-25T06:52:43.096Z,102358.14
2018-02-25T06:55:10.582Z,102353.08
2018-02-25T06:57:38.082Z,102359.47
2018-02-25T07:00:05.661Z,102365.45
2018-02-25T07:02:33.356Z,102360.29
2018-02-25T07:05:00.929Z,102372.58
2018-02-25T07:07:28.473Z,102371.81
2018-02-25T07:09:56.050Z,102369.84
2018-02-25T07:12:23.599Z,102363.95
2018-02-25T07:14:51.224Z,102366.89
2018-02-25T07:17:18.832Z,102365.21
2018-02-25T07:19:46.353Z,102368.52
2018-02-25T07:22:14.093Z,102368.47
2018-02-25T07:24:42.300Z,102367.46
2018-02-25T07:27:09.972Z,102368.81
2018-02-25T07:29:37.637Z,102357.26
2018-02-25T07:32:05.419Z,102355.83
2018-02-25T07:34:33.193Z,102353.14
2018-02-25T07:37:00.906Z,102359.85
2018-02-25T07:39:28.461Z,102349.75
2018-02-25T07:41:56.219Z,102352.61
2018-02-25T07:44:23.915Z,102354.00
2018-02-25T07:46:52.170Z,102358.66
2018-02-25T07:49:19.741Z,102364.60
2018-02-25T07:51:47.347Z,102367.19
2018-02-25T07:54:14.938Z,102369.55
2018-02-25T07:56:42.542Z,102372.87
2018-02-25T07:59:10.100Z,102373.54
2018-02-25T08:01:37.839Z,102378.30
2018-02-25T08:04:05.703Z,102383.48
2018-02-25T08:06:33.271Z,102384.31
2018-02-25T08:09:01.044Z,102378.34
2018-02-25T08:11:29.162Z,102380.59
2018-02-25T08:13:58.142Z,102376.16
2018-02-25T08:16:25.912Z,102379.83
2018-02-25T08:18:54.226Z,102378.42
2018-02-25T08:21:22.194Z,102381.00
2018-02-25T08:23:49.960Z,102380.28
2018-02-25T08:26:17.872Z,102382.92
2018-02-25T08:28:46.048Z,102383.23
2018-02-25T08:31:14.171Z,102374.86
2018-02-25T08:33:41.828Z,102377.36
2018-02-25T08:36:09.931Z,102377.16
2018-02-25T08:38:38.086Z,102372.64
2018-02-25T08:41:05.850Z,102379.11
2018-02-25T08:43:33.858Z,102379.42
2018-02-25T08:46:01.727Z,102381.45
2018-02-25T08:48:29.263Z,102384.65
2018-02-25T08:50:57.143Z,102373.27
2018-02-25T08:53:25.177Z,102371.79
2018-02-25T08:55:52.860Z,102369.55
2018-02-25T08:58:20.488Z,102373.90
2018-02-25T09:00:48.588Z,102375.69
2018-02-25T09:03:16.295Z,102383.24
2018-02-25T09:05:44.061Z,102373.30
2018-02-25T09:08:11.667Z,102379.86
2018-02-25T09:10:39.375Z,102387.52
2018-02-25T09:13:07.061Z,102382.72
2018-02-25T09:15:34.829Z,102383.25
2018-02-25T09:18:02.512Z,102373.84
2018-02-25T09:20:30.011Z,102373.41
2018-02-25T09:22:58.749Z,102374.88
2018-02-25T09:25:26.324Z,102371.92
2018-02-25T09:27:54.129Z,102370.53
2018-02-25T09:30:21.853Z,102363.23
2018-02-25T09:32:49.824Z,102363.58
2018-02-25T09:35:17.398Z,102371.23
2018-02-25T09:37:45.284Z,102377.27
2018-02-25T09:40:12.822Z,102367.73
2018-02-25T09:42:40.378Z,102365.14
2018-02-25T09:45:07.939Z,102364.43
2018-02-25T09:47:35.726Z,102366.52
2018-02-25T09:50:03.250Z,102363.33
2018-02-25T09:55:28.573Z,102366.66
2018-02-25T09:57:56.105Z,102357.94
2018-02-25T10:00:23.623Z,102362.66
2018-02-25T10:02:51.238Z,102368.59
2018-02-25T10:05:18.753Z,102364.44
2018-02-25T10:07:46.242Z,102358.21
2018-02-25T10:10:13.791Z,102364.23
2018-02-25T10:12:41.301Z,102353.12
2018-02-25T10:15:08.822Z,102353.95
2018-02-25T10:17:36.354Z,102358.75
2018-02-25T10:20:03.898Z,102350.83
2018-02-25T10:22:31.439Z,102356.63
2018-02-25T10:24:59.234Z,102346.16
2018-02-25T10:27:26.994Z,102345.63
2018-02-25T10:29:54.563Z,102353.13
2018-02-25T10:32:22.083Z,102353.25
2018-02-25T10:34:49.604Z,102348.43
2018-02-25T10:37:17.138Z,102350.08
2018-02-25T10:39:44.686Z,102346.58
2018-02-25T10:42:12.216Z,102342.34
2018-02-25T10:44:39.734Z,102333.67
2018-02-25T10:47:07.231Z,102323.09
2018-02-25T10:49:35.912Z,102326.05
2018-02-25T10:52:03.654Z,102316.59
2018-02-25T10:54:31.153Z,102321.64
2018-02-25T10:56:58.650Z,102315.94
2018-02-25T10:59:26.135Z,102313.70
2018-02-25T11:01:53.647Z,102313.61
2018-02-25T11:04:21.274Z,102298.91
2018-02-25T11:06:48.817Z,102294.55
2018-02-25T11:09:16.302Z,102297.72
2018-02-25T11:11:43.806Z,102293.50
2018-02-25T11:14:11.299Z,102288.67
2018-02-25T11:16:38.809Z,102288.70
2018-02-25T11:19:06.327Z,102287.11
2018-02-25T11:21:33.891Z,102278.08
2018-02-25T11:24:01.396Z,102274.09
2018-02-25T11:26:28.886Z,102274.28
2018-02-25T11:28:56.374Z,102269.52
2018-02-25T11:31:23.983Z,102254.53
2018-02-25T11:33:51.399Z,102260.87
2018-02-25T11:36:18.959Z,102264.89
2018-02-25T11:38:47.356Z,102260.95
2018-02-25T11:41:14.873Z,102262.20
2018-02-25T11:43:42.365Z,102253.95
2018-02-25T11:46:09.874Z,102260.63
2018-02-25T11:48:37.380Z,102251.45
2018-02-25T11:51:04.972Z,102243.95
2018-02-25T11:53:32.554Z,102242.70
2018-02-25T11:56:00.074Z,102240.48
2018-02-25T11:58:27.666Z,102243.93
2018-02-25T12:00:55.562Z,102244.61
2018-02-25T12:03:23.167Z,102234.61
2018-02-25T12:05:51.348Z,102236.30
2018-02-25T12:08:18.916Z,102232.34
2018-02-25T12:10:46.418Z,102224.86
2018-02-25T12:13:14.104Z,102227.09
2018-02-25T12:15:41.675Z,102232.78
2018-02-25T12:18:09.202Z,102232.89
2018-02-25T12:20:37.656Z,102230.27
2018-02-25T12:23:05.398Z,102229.55
2018-02-25T12:25:32.910Z,102223.09
2018-02-25T12:28:00.394Z,102232.30
2018-02-25T12:30:27.952Z,102217.13
2018-02-25T12:32:55.444Z,102218.31
2018-02-25T12:35:23.133Z,102220.98
2018-02-25T12:37:50.635Z,102219.58
2018-02-25T12:40:18.168Z,102215.41
2018-02-25T12:42:45.715Z,102210.17
2018-02-25T12:45:13.304Z,102205.73
2018-02-25T12:47:40.870Z,102203.78
2018-02-25T12:50:08.391Z,102212.87
2018-02-25T12:52:35.979Z,102201.66
2018-02-25T12:55:03.587Z,102202.99
2018-02-25T12:57:31.122Z,102196.11
2018-02-25T12:59:58.963Z,102191.43
2018-02-25T13:02:26.515Z,102189.72
2018-02-25T13:04:54.742Z,102192.27
2018-02-25T13:07:22.325Z,102192.12
2018-02-25T13:09:49.822Z,102180.03
2018-02-25T13:12:17.351Z,102191.34
2018-02-25T13:14:44.827Z,102189.91
2018-02-25T13:17:12.484Z,102183.73
2018-02-25T13:19:40.590Z,102173.41
2018-02-25T13:22:08.094Z,102175.71
2018-02-25T13:24:35.595Z,102171.77
2018-02-25T13:27:03.193Z,102164.36
2018-02-25T13:29:30.736Z,102169.77
2018-02-25T13:31:58.284Z,102160.75
2018-02-25T13:34:25.913Z,102162.23
2018-02-25T13:36:53.366Z,102163.05
2018-02-25T13:39:20.924Z,102162.52
2018-02-25T13:41:48.417Z,102159.77
2018-02-25T13:44:15.968Z,102162.27
2018-02-25T13:46:43.501Z,102161.88
2018-02-25T13:49:10.990Z,102158.14
2018-02-25T13:51:38.716Z,102161.72
2018-02-25T13:54:06.219Z,102156.37
2018-02-25T13:56:33.746Z,102150.31
2018-02-25T13:59:01.310Z,102154.52
2018-02-25T14:01:28.809Z,102153.78
2018-02-25T14:03:56.344Z,102155.50
2018-02-25T14:06:23.947Z,102151.11
2018-02-25T14:08:51.474Z,102155.94
2018-02-25T14:11:19.009Z,102154.72
2018-02-25T14:13:46.514Z,102153.06
2018-02-25T14:16:14.144Z,102154.31
2018-02-25T14:18:41.871Z,102157.09
2018-02-25T14:21:09.550Z,102154.34
2018-02-25T14:23:37.041Z,102157.75
2018-02-25T14:26:04.559Z,102148.83
2018-02-25T14:28:33.013Z,102155.34
2018-02-25T14:31:00.532Z,102158.99
2018-02-25T14:33:28.064Z,102157.08
2018-02-25T14:35:55.616Z,102151.87
2018-02-25T14:38:23.331Z,102155.94
2018-02-25T14:40:50.870Z,102149.05
2018-02-25T14:43:18.401Z,102153.59
2018-02-25T14:45:45.913Z,102151.17
2018-02-25T14:48:13.480Z,102153.11
2018-02-25T14:50:40.976Z,102148.25
2018-02-25T14:53:08.497Z,102143.03
2018-02-25T14:55:36.025Z,102143.28
2018-02-25T14:58:03.558Z,102138.04
2018-02-25T15:00:31.091Z,102142.99
2018-02-25T15:02:58.690Z,102136.16
2018-02-25T15:05:26.223Z,102129.45
2018-02-25T15:07:53.730Z,102130.45
2018-02-25T15:10:24.128Z,102131.05
2018-02-25T15:12:53.856Z,102127.77
2018-02-25T15:15:21.505Z,102131.33
2018-02-25T15:17:49.043Z,102126.56
2018-02-25T15:20:16.656Z,102130.00
2018-02-25T15:22:44.245Z,102131.06
2018-02-25T15:25:11.747Z,102130.12
2018-02-25T15:27:39.376Z,102125.77
2018-02-25T15:30:11.624Z,102120.02
2018-02-25T15:32:39.331Z,102127.99
2018-02-25T15:35:06.932Z,102129.71
2018-02-25T15:37:34.483Z,102125.51
2018-02-25T15:40:02.224Z,102121.05
2018-02-25T15:42:30.712Z,102124.46
2018-02-25T15:44:59.003Z,102120.94
2018-02-25T15:47:27.261Z,102129.03
2018-02-25T15:49:54.747Z,102125.67
2018-02-25T15:52:24.420Z,102125.67
2018-02-25T15:54:51.923Z,102128.45
2018-02-25T15:57:19.437Z,102124.00
2018-02-25T15:59:47.123Z,102123.33
2018-02-25T16:02:15.837Z,102126.14
2018-02-25T16:04:43.399Z,102125.14
2018-02-25T16:07:10.922Z,102121.39
2018-02-25T16:09:38.466Z,102119.16
2018-02-25T16:12:06.003Z,102116.41
2018-02-25T16:14:33.620Z,102122.10
2018-02-25T16:17:01.191Z,102119.16
2018-02-25T16:19:28.814Z,102121.32
2018-02-25T16:21:56.331Z,102121.63
2018-02-25T16:24:23.890Z,102125.16
2018-02-25T16:26:51.528Z,102123.80
2018-02-25T16:29:19.121Z,102128.84
2018-02-25T16:31:46.652Z,102125.47
2018-02-25T16:34:14.644Z,102130.77
2018-02-25T16:36:42.175Z,102133.06
2018-02-25T16:39:10.115Z,102132.49
2018-02-25T16:41:37.675Z,102129.55
2018-02-25T16:44:05.193Z,102127.57
2018-02-25T16:46:32.782Z,102135.29
2018-02-25T16:49:00.302Z,102140.98
2018-02-25T16:51:27.825Z,102135.66
2018-02-25T16:53:55.370Z,102132.72
2018-02-25T16:56:22.854Z,102137.50
2018-02-25T16:58:50.369Z,102142.63
2018-02-25T17:01:17.890Z,102142.81
2018-02-25T17:03:45.471Z,102146.08
2018-02-25T17:06:12.998Z,102145.11
2018-02-25T17:08:40.525Z,102147.11
2018-02-25T17:11:08.046Z,102147.69
2018-02-25T17:13:35.612Z,102145.93
2018-02-25T17:16:03.184Z,102150.13
2018-02-25T17:18:30.697Z,102147.33
2018-02-25T17:20:58.303Z,102151.69
2018-02-25T17:23:25.836Z,102155.05
2018-02-25T17:25:53.381Z,102151.91
2018-02-25T17:28:20.872Z,102151.78
2018-02-25T17:30:48.396Z,102158.87
2018-02-25T17:33:15.934Z,102156.72
2018-02-25T17:35:43.454Z,102152.77
2018-02-25T17:38:11.022Z,102160.04
2018-02-25T17:40:38.546Z,102150.72
2018-02-25T17:43:06.135Z,102152.60
2018-02-25T17:45:33.655Z,102153.94
2018-02-25T17:48:01.182Z,102149.80
2018-02-25T17:50:28.754Z,102153.44
2018-02-25T17:52:56.304Z,102156.06
2018-02-25T17:55:33.123Z,102153.05
2018-02-25T17:57:51.389Z,102153.50
2018-02-25T18:00:18.951Z,102155.55
2018-02-25T18:02:46.497Z,102157.34
2018-02-25T18:05:14.060Z,102152.96
2018-02-25T18:07:41.586Z,102159.51
2018-02-25T18:10:09.233Z,102152.59
2018-02-25T18:12:36.748Z,102150.93
2018-02-25T18:15:05.179Z,102148.11
2018-02-25T18:17:32.764Z,102153.59
2018-02-25T18:20:00.810Z,102155.52
2018-02-25T18:22:28.360Z,102150.27
2018-02-25T18:24:55.879Z,102149.67
2018-02-25T18:27:23.424Z,102151.05
2018-02-25T18:29:50.974Z,102150.81
2018-02-25T18:32:18.467Z,102142.95
2018-02-25T18:34:45.976Z,102144.56
2018-02-25T18:37:13.841Z,102145.88
2018-02-25T18:39:41.458Z,102147.37
2018-02-25T18:42:09.253Z,102147.48
2018-02-25T18:44:37.572Z,102145.41
2018-02-25T18:47:05.109Z,102139.22
2018-02-25T18:49:32.657Z,102143.28
2018-02-25T18:52:00.236Z,102147.09
2018-02-25T18:54:27.855Z,102150.70
2018-02-25T18:56:57.359Z,102153.59
2018-02-25T18:59:24.959Z,102146.02
2018-02-25T19:01:52.470Z,102146.06
2018-02-25T19:04:20.099Z,102145.80
2018-02-25T19:06:47.728Z,102143.24
2018-02-25T19:09:15.299Z,102146.55
2018-02-25T19:11:42.804Z,102146.62
2018-02-25T19:14:10.378Z,102142.44
2018-02-25T19:16:37.885Z,102140.23
2018-02-25T19:19:05.438Z,102141.99
2018-02-25T19:21:32.952Z,102141.30
2018-02-25T19:24:00.499Z,102137.61
2018-02-25T19:26:28.266Z,102140.45
2018-02-25T19:28:55.778Z,102145.45
2018-02-25T19:31:23.782Z,102144.06
2018-02-25T19:33:52.329Z,102140.42
2018-02-25T19:36:25.370Z,102135.10
2018-02-25T19:38:58.561Z,102134.39
2018-02-25T19:41:31.596Z,102135.09
2018-02-25T19:44:01.440Z,102136.66
2018-02-25T19:46:29.003Z,102129.83
2018-02-25T19:48:56.529Z,102130.36
2018-02-25T19:51:24.024Z,102130.44
2018-02-25T19:53:51.533Z,102135.37
2018-02-25T19:56:19.085Z,102136.88
2018-02-25T19:58:46.576Z,102135.84
2018-02-25T20:01:14.062Z,102138.76
2018-02-25T20:03:41.657Z,102141.77
2018-02-25T20:06:09.181Z,102153.03
2018-02-25T20:08:36.724Z,102149.95
2018-02-25T20:11:04.343Z,102148.86
2018-02-25T20:13:31.917Z,102151.11
2018-02-25T20:15:59.480Z,102148.02
2018-02-25T20:18:27.045Z,102140.52
2018-02-25T20:20:54.629Z,102146.24
2018-02-25T20:23:22.261Z,102138.40
2018-02-25T20:25:49.825Z,102134.96
2018-02-25T20:28:17.422Z,102141.58
2018-02-25T20:30:45.142Z,102143.91
2018-02-25T20:33:12.648Z,102150.64
2018-02-25T20:35:40.241Z,102148.95
2018-02-25T20:38:07.833Z,102141.21
2018-02-25T20:40:35.368Z,102133.84
2018-02-25T20:43:02.992Z,102131.22
2018-02-25T20:45:30.622Z,102125.52
2018-02-25T20:47:58.173Z,102125.49
2018-02-25T20:50:25.690Z,102124.59
2018-02-25T20:52:53.216Z,102129.78
2018-02-25T20:55:20.696Z,102124.73
2018-02-25T20:57:48.250Z,102124.23
2018-02-25T21:00:15.934Z,102133.50
2018-02-25T21:02:44.171Z,102120.44
2018-02-25T21:05:11.757Z,102123.48
2018-02-25T21:07:39.328Z,102124.64
2018-02-25T21:10:07.054Z,102126.98
2018-02-25T21:12:34.815Z,102124.53
2018-02-25T21:15:02.353Z,102123.79
2018-02-25T21:17:29.932Z,102127.23
2018-02-25T21:19:57.490Z,102128.45
2018-02-25T21:22:25.014Z,102118.83
2018-02-25T21:24:52.573Z,102123.44
2018-02-25T21:27:20.103Z,102130.32
2018-02-25T21:29:47.774Z,102136.42
2018-02-25T21:32:15.589Z,102133.17
2018-02-25T21:34:43.090Z,102136.98
2018-02-25T21:37:10.634Z,102128.83
2018-02-25T21:39:38.172Z,102128.21
2018-02-25T21:42:05.773Z,102138.56
2018-02-25T21:44:33.349Z,102136.84
2018-02-25T21:47:00.911Z,102131.87
2018-02-25T21:49:28.459Z,102131.97
2018-02-25T21:51:56.067Z,102131.86
2018-02-25T21:54:29.190Z,102129.66
2018-02-25T21:57:02.355Z,102124.81
2018-02-25T21:59:35.440Z,102126.44
2018-02-25T22:02:08.675Z,102118.98
2018-02-25T22:04:36.230Z,102122.23
2018-02-25T22:07:03.807Z,102121.70
2018-02-25T22:09:31.416Z,102119.51
2018-02-25T22:12:12.098Z,102119.75
2018-02-25T22:14:39.618Z,102115.88
2018-02-25T22:17:07.161Z,102121.00
2018-02-25T22:19:34.973Z,102118.73
2018-02-25T22:22:02.539Z,102119.88
2018-02-25T22:24:30.076Z,102117.76
2018-02-25T22:26:57.615Z,102116.39
2018-02-25T22:29:25.134Z,102106.50
2018-02-25T22:31:52.773Z,102116.67
2018-02-25T22:34:20.358Z,102116.24
2018-02-25T22:36:47.954Z,102117.58
2018-02-25T22:39:15.492Z,102119.61
2018-02-25T22:41:45.995Z,102117.80
2018-02-25T22:44:13.647Z,102118.67
2018-02-25T22:46:41.209Z,102120.02
2018-02-25T22:49:08.783Z,102122.58
2018-02-25T22:51:36.357Z,102121.44
2018-02-25T22:54:03.916Z,102118.08
2018-02-25T22:56:31.450Z,102126.44
2018-02-25T22:58:59.032Z,102125.70
2018-02-25T23:01:26.563Z,102123.05
2018-02-25T23:03:54.095Z,102129.53
2018-02-25T23:06:21.649Z,102134.88
2018-02-25T23:08:51.702Z,102130.03
2018-02-25T23:11:19.236Z,102133.09
2018-02-25T23:13:46.815Z,102132.27
2018-02-25T23:16:14.386Z,102136.25
2018-02-25T23:18:41.893Z,102137.30
2018-02-25T23:21:09.509Z,102132.70
2018-02-25T23:23:37.067Z,102141.89
2018-02-25T23:26:04.593Z,102141.19
2018-02-25T23:28:32.083Z,102130.25
2018-02-25T23:30:59.637Z,102137.80
2018-02-25T23:33:27.205Z,102131.50
2018-02-25T23:35:54.759Z,102130.09
2018-02-25T23:38:22.279Z,102122.80
2018-02-25T23:40:49.849Z,102130.06
2018-02-25T23:43:17.823Z,102130.85
2018-02-25T23:45:45.346Z,102129.45
2018-02-25T23:48:12.968Z,102131.36
2018-02-25T23:50:40.664Z,102136.71
2018-02-25T23:53:08.209Z,102135.00
2018-02-25T23:55:35.770Z,102131.87
2018-02-25T23:58:03.305Z,102135.03
